createdAt,value
2019-06-01T00:01:56.014Z,12.78
2019-06-01T00:04:26.383Z,13.58
2019-06-01T00:06:56.848Z,16.15
2019-06-01T00:09:27.055Z,15.48
2019-06-01T00:11:57.409Z,22.32
2019-06-01T00:14:27.666Z,16.60
2019-06-01T00:16:57.974Z,19.10
2019-06-01T00:19:28.303Z,17.98
2019-06-01T00:21:58.644Z,19.52
2019-06-01T00:24:28.841Z,16.25
2019-06-01T00:26:59.336Z,15.88
2019-06-01T00:29:29.529Z,15.75
2019-06-01T00:31:59.869Z,16.87
2019-06-01T00:34:30.235Z,14.83
2019-06-01T00:37:00.634Z,19.12
2019-06-01T00:39:30.906Z,22.07
2019-06-01T00:42:02.942Z,22.90
2019-06-01T00:44:33.205Z,17.73
2019-06-01T00:47:03.500Z,19.35
2019-06-01T00:49:33.731Z,19.37
2019-06-01T00:52:03.971Z,21.90
2019-06-01T00:54:34.235Z,21.55
2019-06-01T00:57:04.507Z,18.35
2019-06-01T00:59:34.846Z,18.62
2019-06-01T01:02:05.020Z,20.48
2019-06-01T01:04:35.338Z,20.00
2019-06-01T01:07:05.605Z,22.25
2019-06-01T01:09:35.907Z,24.47
2019-06-01T01:12:06.204Z,19.50
2019-06-01T01:14:36.420Z,21.48
2019-06-01T01:17:06.782Z,21.23
2019-06-01T01:19:37.383Z,20.17
2019-06-01T01:22:07.737Z,23.32
2019-06-01T01:24:38.023Z,20.92
2019-06-01T01:27:09.391Z,27.95
2019-06-01T01:29:39.711Z,24.02
2019-06-01T01:32:10.051Z,22.93
2019-06-01T01:34:40.383Z,21.20
2019-06-01T01:37:10.643Z,23.07
2019-06-01T01:39:40.959Z,18.05
2019-06-01T01:42:11.301Z,17.92
2019-06-01T01:44:41.543Z,20.12
2019-06-01T01:47:14.329Z,21.93
2019-06-01T01:49:43.597Z,25.80
2019-06-01T01:52:13.887Z,20.32
2019-06-01T01:54:44.189Z,19.32
2019-06-01T01:57:14.447Z,24.32
2019-06-01T01:59:44.695Z,23.45
2019-06-01T02:02:15.004Z,24.20
2019-06-01T02:04:45.299Z,24.32
2019-06-01T02:07:15.515Z,22.05
2019-06-01T02:09:45.826Z,22.67
2019-06-01T02:12:16.035Z,22.13
2019-06-01T02:14:46.336Z,22.60
2019-06-01T02:17:16.543Z,25.77
2019-06-01T02:19:46.851Z,22.17
2019-06-01T02:22:17.037Z,19.73
2019-06-01T02:24:47.376Z,26.12
2019-06-01T02:27:17.644Z,20.88
2019-06-01T02:29:47.946Z,20.70
2019-06-01T02:32:18.208Z,22.32
2019-06-01T02:34:48.563Z,29.87
2019-06-01T02:37:18.773Z,24.72
2019-06-01T02:39:50.117Z,24.85
2019-06-01T02:42:20.453Z,22.95
2019-06-01T02:44:50.736Z,24.25
2019-06-01T02:47:21.001Z,23.40
2019-06-01T02:49:51.352Z,22.60
2019-06-01T02:52:21.615Z,30.17
2019-06-01T02:54:51.952Z,29.02
2019-06-01T02:57:22.222Z,29.20
2019-06-01T02:59:52.580Z,26.07
2019-06-01T03:02:22.850Z,31.42
2019-06-01T03:04:53.184Z,28.47
2019-06-01T03:07:26.022Z,23.87
2019-06-01T03:09:58.698Z,26.10
2019-06-01T03:12:32.048Z,26.95
2019-06-01T03:15:06.468Z,25.80
2019-06-01T03:17:39.012Z,27.40
2019-06-01T03:20:09.763Z,20.65
2019-06-01T03:22:43.447Z,25.92
2019-06-01T03:25:14.111Z,25.20
2019-06-01T03:27:46.661Z,25.72
2019-06-01T03:30:19.956Z,25.27
2019-06-01T03:32:50.160Z,24.77
2019-06-01T03:35:20.507Z,29.82
2019-06-01T03:37:50.750Z,25.68
2019-06-01T03:40:24.034Z,27.05
2019-06-01T03:42:53.014Z,22.27
2019-06-01T03:45:23.294Z,30.90
2019-06-01T03:47:53.516Z,31.40
2019-06-01T03:50:23.836Z,25.55
2019-06-01T03:52:54.101Z,25.88
2019-06-01T03:55:24.452Z,26.02
2019-06-01T03:57:54.717Z,25.12
2019-06-01T04:00:24.980Z,27.60
2019-06-01T04:02:55.260Z,23.25
2019-06-01T04:05:25.668Z,24.10
2019-06-01T04:07:55.948Z,24.45
2019-06-01T04:10:26.308Z,24.35
2019-06-01T04:12:56.559Z,25.32
2019-06-01T04:15:26.958Z,24.55
2019-06-01T04:17:57.272Z,29.07
2019-06-01T04:20:27.742Z,23.95
2019-06-01T04:22:57.991Z,23.12
2019-06-01T04:25:29.979Z,26.02
2019-06-01T04:28:00.321Z,28.32
2019-06-01T04:30:30.973Z,35.05
2019-06-01T04:33:02.507Z,30.52
2019-06-01T04:35:32.901Z,26.52
2019-06-01T04:38:03.176Z,25.88
2019-06-01T04:40:33.516Z,25.27
2019-06-01T04:43:03.868Z,27.85
2019-06-01T04:45:34.537Z,28.12
2019-06-01T04:48:06.300Z,27.50
2019-06-01T04:50:36.866Z,25.75
2019-06-01T04:53:07.127Z,29.87
2019-06-01T04:55:37.459Z,28.17
2019-06-01T04:58:08.896Z,26.10
2019-06-01T05:00:39.385Z,23.20
2019-06-01T05:03:10.841Z,24.77
2019-06-01T05:05:41.616Z,29.40
2019-06-01T05:08:12.571Z,25.08
2019-06-01T05:10:44.030Z,28.73
2019-06-01T05:13:15.589Z,20.10
2019-06-01T05:15:45.935Z,25.92
2019-06-01T05:18:18.413Z,22.90
2019-06-01T05:20:48.077Z,23.27
2019-06-01T05:23:18.355Z,29.65
2019-06-01T05:25:48.580Z,15.53
2019-06-01T05:28:19.006Z,19.82
2019-06-01T05:30:49.393Z,16.00
2019-06-01T05:33:35.509Z,17.67
2019-06-01T05:35:51.564Z,16.93
2019-06-01T05:38:21.786Z,17.80
2019-06-01T05:40:52.077Z,21.15
2019-06-01T05:43:22.345Z,19.92
2019-06-01T05:45:52.547Z,33.48
2019-06-01T05:48:25.810Z,15.83
2019-06-01T05:50:54.866Z,14.40
2019-06-01T05:53:25.146Z,28.80
2019-06-01T05:55:55.347Z,16.67
2019-06-01T05:58:28.682Z,19.00
2019-06-01T06:00:57.561Z,16.52
2019-06-01T06:03:40.047Z,21.82
2019-06-01T06:05:59.884Z,15.23
2019-06-01T06:08:30.176Z,19.07
2019-06-01T06:11:00.392Z,18.50
2019-06-01T06:13:30.692Z,18.37
2019-06-01T06:16:00.928Z,19.90
2019-06-01T06:18:31.205Z,17.17
2019-06-01T06:21:01.484Z,15.00
2019-06-01T06:23:31.801Z,17.17
2019-06-01T06:26:02.129Z,20.48
2019-06-01T06:28:32.376Z,16.93
2019-06-01T06:31:02.646Z,18.90
2019-06-01T06:33:32.950Z,16.85
2019-06-01T06:36:03.228Z,16.77
2019-06-01T06:38:33.456Z,19.35
2019-06-01T06:41:03.716Z,29.95
2019-06-01T06:43:33.950Z,21.75
2019-06-01T06:46:04.157Z,20.15
2019-06-01T06:48:38.229Z,18.15
2019-06-01T06:51:08.472Z,23.42
2019-06-01T06:53:38.677Z,17.92
2019-06-01T06:56:09.016Z,15.63
2019-06-01T06:58:39.271Z,16.90
2019-06-01T07:01:12.104Z,14.45
2019-06-01T07:03:42.520Z,21.42
2019-06-01T07:06:12.820Z,22.37
2019-06-01T07:08:43.043Z,19.50
2019-06-01T07:11:13.316Z,19.20
2019-06-01T07:13:43.496Z,16.05
2019-06-01T07:16:13.864Z,16.45
2019-06-01T07:18:44.253Z,19.52
2019-06-01T07:21:15.284Z,17.55
2019-06-01T07:23:45.575Z,16.80
2019-06-01T07:26:15.823Z,18.50
2019-06-01T07:28:46.168Z,16.17
2019-06-01T07:31:16.440Z,14.43
2019-06-01T07:33:46.716Z,25.52
2019-06-01T07:36:17.036Z,13.75
2019-06-01T07:38:47.303Z,17.07
2019-06-01T07:41:17.584Z,17.20
2019-06-01T07:43:48.001Z,15.20
2019-06-01T07:46:18.274Z,19.77
2019-06-01T07:48:48.534Z,14.93
2019-06-01T07:51:18.879Z,11.25
2019-06-01T07:53:49.117Z,8.45
2019-06-01T07:56:20.423Z,8.83
2019-06-01T07:58:51.972Z,10.20
2019-06-01T08:01:23.489Z,14.15
2019-06-01T08:03:54.106Z,21.97
2019-06-01T08:06:26.065Z,18.85
2019-06-01T08:08:56.434Z,11.57
2019-06-01T08:11:30.065Z,11.10
2019-06-01T08:13:58.671Z,17.42
2019-06-01T08:16:29.990Z,16.15
2019-06-01T08:19:00.442Z,12.43
2019-06-01T08:21:30.705Z,11.65
2019-06-01T08:24:01.038Z,32.28
2019-06-01T08:26:32.388Z,14.98
2019-06-01T08:29:02.990Z,14.10
2019-06-01T08:31:33.673Z,21.73
2019-06-01T08:34:04.079Z,16.85
2019-06-01T08:36:34.276Z,12.93
2019-06-01T08:39:06.723Z,13.22
2019-06-01T08:41:37.006Z,16.45
2019-06-01T08:44:08.567Z,11.43
2019-06-01T08:46:38.907Z,18.80
2019-06-01T08:49:09.323Z,13.60
2019-06-01T08:51:39.640Z,12.65
2019-06-01T08:54:09.968Z,13.58
2019-06-01T08:56:40.194Z,21.82
2019-06-01T08:59:10.548Z,13.43
2019-06-01T09:01:40.867Z,15.60
2019-06-01T09:04:11.176Z,11.03
2019-06-01T09:06:41.482Z,13.03
2019-06-01T09:09:12.073Z,10.90
2019-06-01T09:11:42.611Z,11.03
2019-06-01T09:14:12.947Z,18.52
2019-06-01T09:16:44.138Z,9.63
2019-06-01T09:19:14.511Z,10.03
2019-06-01T09:21:45.915Z,13.62
2019-06-01T09:24:16.151Z,10.75
2019-06-01T09:26:46.474Z,9.48
2019-06-01T09:29:16.964Z,10.45
2019-06-01T09:31:47.170Z,10.43
2019-06-01T09:34:17.453Z,11.57
2019-06-01T09:36:47.733Z,10.40
2019-06-01T09:39:18.019Z,8.55
2019-06-01T09:41:48.291Z,8.63
2019-06-01T09:44:19.560Z,13.75
2019-06-01T09:46:49.851Z,18.23
2019-06-01T09:49:20.047Z,8.08
2019-06-01T09:51:50.340Z,9.73
2019-06-01T09:54:20.606Z,7.70
2019-06-01T09:56:51.055Z,9.88
2019-06-01T09:59:21.279Z,11.65
2019-06-01T10:01:51.653Z,6.90
2019-06-01T10:04:21.881Z,7.03
2019-06-01T10:06:52.161Z,7.62
2019-06-01T10:09:22.452Z,7.90
2019-06-01T10:11:54.223Z,9.50
2019-06-01T10:14:24.432Z,10.00
2019-06-01T10:16:54.929Z,9.50
2019-06-01T10:19:25.208Z,7.22
2019-06-01T10:21:55.445Z,11.10
2019-06-01T10:24:25.704Z,8.08
2019-06-01T10:26:55.920Z,9.90
2019-06-01T10:29:26.105Z,7.65
2019-06-01T10:31:56.453Z,7.75
2019-06-01T10:34:26.693Z,10.13
2019-06-01T10:36:57.036Z,7.90
2019-06-01T10:39:33.331Z,9.68
2019-06-01T10:42:03.656Z,7.15
2019-06-01T10:44:38.923Z,7.75
2019-06-01T10:47:06.912Z,9.35
2019-06-01T10:49:38.008Z,10.88
2019-06-01T10:52:08.378Z,14.20
2019-06-01T10:54:38.692Z,9.08
2019-06-01T10:57:11.332Z,10.30
2019-06-01T10:59:42.623Z,11.30
2019-06-01T11:02:13.097Z,9.28
2019-06-01T11:04:43.541Z,8.33
2019-06-01T11:07:13.871Z,9.05
2019-06-01T11:09:44.180Z,11.45
2019-06-01T11:12:14.487Z,9.78
2019-06-01T11:14:44.734Z,13.98
2019-06-01T11:17:15.026Z,8.35
2019-06-01T11:19:45.220Z,7.45
2019-06-01T11:22:15.436Z,10.82
2019-06-01T11:24:45.692Z,7.70
2019-06-01T11:27:15.998Z,10.93
2019-06-01T11:29:51.411Z,11.97
2019-06-01T11:32:19.141Z,8.85
2019-06-01T11:34:49.428Z,12.65
2019-06-01T11:37:19.800Z,8.60
2019-06-01T11:39:50.169Z,12.37
2019-06-01T11:42:20.649Z,10.95
2019-06-01T11:47:34.749Z,10.78
2019-06-01T11:50:06.653Z,9.73
2019-06-01T11:52:37.100Z,9.38
2019-06-01T11:55:08.730Z,8.65
2019-06-01T11:57:39.469Z,13.45
2019-06-01T12:00:11.908Z,8.65
2019-06-01T12:02:42.224Z,13.30
2019-06-01T12:05:13.079Z,6.42
2019-06-01T12:07:43.899Z,8.23
2019-06-01T12:10:14.932Z,7.08
2019-06-01T12:12:46.482Z,5.53
2019-06-01T12:15:17.356Z,6.78
2019-06-01T12:17:47.680Z,7.00
2019-06-01T12:20:18.219Z,6.47
2019-06-01T12:22:48.432Z,21.37
2019-06-01T12:25:18.828Z,8.43
2019-06-01T12:27:49.046Z,10.98
2019-06-01T12:30:21.858Z,6.72
2019-06-01T12:32:52.226Z,6.53
2019-06-01T12:35:22.426Z,6.35
2019-06-01T12:38:05.496Z,8.88
2019-06-01T12:40:24.581Z,8.08
2019-06-01T12:42:54.918Z,11.15
2019-06-01T12:45:25.105Z,7.28
2019-06-01T12:47:58.600Z,6.92
2019-06-01T12:50:27.724Z,8.35
2019-06-01T12:52:58.115Z,8.50
2019-06-01T12:55:28.485Z,6.72
2019-06-01T12:57:58.742Z,7.62
2019-06-01T13:00:29.019Z,7.60
2019-06-01T13:03:07.038Z,8.33
2019-06-01T13:05:31.279Z,9.43
2019-06-01T13:08:02.967Z,8.38
2019-06-01T13:10:33.392Z,9.30
2019-06-01T13:13:03.723Z,8.03
2019-06-01T13:15:33.922Z,6.10
2019-06-01T13:18:04.266Z,15.48
2019-06-01T13:20:34.610Z,9.68
2019-06-01T13:23:04.895Z,14.98
2019-06-01T13:25:35.160Z,8.38
2019-06-01T13:28:05.613Z,7.90
2019-06-01T13:30:36.094Z,15.13
2019-06-01T13:33:06.412Z,7.10
2019-06-01T13:35:36.757Z,7.08
2019-06-01T13:38:12.304Z,7.30
2019-06-01T13:40:39.940Z,4.20
2019-06-01T13:43:10.268Z,9.08
2019-06-01T13:45:40.539Z,4.22
2019-06-01T13:48:10.936Z,9.23
2019-06-01T13:50:41.422Z,5.80
2019-06-01T13:53:11.715Z,7.20
2019-06-01T13:55:44.062Z,8.80
2019-06-01T13:58:14.400Z,14.13
2019-06-01T14:00:44.732Z,5.25
2019-06-01T14:03:15.059Z,9.33
2019-06-01T14:05:45.280Z,5.37
2019-06-01T14:08:28.568Z,7.17
2019-06-01T14:10:47.451Z,7.15
2019-06-01T14:13:17.791Z,9.98
2019-06-01T14:15:49.417Z,5.20
2019-06-01T14:18:19.955Z,4.47
2019-06-01T14:20:50.198Z,8.78
2019-06-01T14:23:20.445Z,6.40
2019-06-01T14:25:50.728Z,4.50
2019-06-01T14:28:20.988Z,6.92
2019-06-01T14:30:52.301Z,6.72
2019-06-01T14:33:23.627Z,10.40
2019-06-01T14:35:54.626Z,9.63
2019-06-01T14:38:25.100Z,5.15
2019-06-01T14:40:55.358Z,5.30
2019-06-01T14:43:28.170Z,5.92
2019-06-01T14:45:58.434Z,5.37
2019-06-01T14:48:28.689Z,6.03
2019-06-01T14:50:58.952Z,8.23
2019-06-01T14:53:29.178Z,6.85
2019-06-01T14:55:59.488Z,9.65
2019-06-01T14:58:29.788Z,7.80
2019-06-01T15:01:00.079Z,8.88
2019-06-01T15:03:30.282Z,8.50
2019-06-01T15:06:02.064Z,7.35
2019-06-01T15:08:33.378Z,4.10
2019-06-01T15:11:03.740Z,7.33
2019-06-01T15:13:33.925Z,7.03
2019-06-01T15:16:04.607Z,7.50
2019-06-01T15:18:34.763Z,4.87
2019-06-01T15:21:06.099Z,7.05
2019-06-01T15:23:38.707Z,6.20
2019-06-01T15:26:09.049Z,4.45
2019-06-01T15:28:40.882Z,8.13
2019-06-01T15:31:12.855Z,13.85
2019-06-01T15:33:43.533Z,7.15
2019-06-01T15:36:13.864Z,7.15
2019-06-01T15:38:47.481Z,5.10
2019-06-01T15:41:17.743Z,5.10
2019-06-01T15:43:47.998Z,6.80
2019-06-01T15:46:19.863Z,7.72
2019-06-01T15:48:51.556Z,7.85
2019-06-01T15:51:24.671Z,6.42
2019-06-01T15:53:56.971Z,5.85
2019-06-01T15:56:27.422Z,10.38
2019-06-01T15:58:58.608Z,9.48
2019-06-01T16:01:29.609Z,9.98
2019-06-01T16:04:03.376Z,5.03
2019-06-01T16:06:33.819Z,8.35
2019-06-01T16:09:05.227Z,6.25
2019-06-01T16:11:36.919Z,6.30
2019-06-01T16:14:08.172Z,5.97
2019-06-01T16:16:40.299Z,6.03
2019-06-01T16:19:10.598Z,8.90
2019-06-01T16:21:40.849Z,5.03
2019-06-01T16:24:11.144Z,6.75
2019-06-01T16:26:41.411Z,4.05
2019-06-01T16:29:15.219Z,7.22
2019-06-01T16:31:45.152Z,7.47
2019-06-01T16:34:15.361Z,6.42
2019-06-01T16:36:51.155Z,5.33
2019-06-01T16:39:24.960Z,10.82
2019-06-01T16:41:55.554Z,7.20
2019-06-01T16:44:26.003Z,4.83
2019-06-01T16:46:57.554Z,8.55
2019-06-01T16:49:27.857Z,4.80
2019-06-01T16:51:59.301Z,5.47
2019-06-01T16:54:30.329Z,9.30
2019-06-01T16:57:00.518Z,6.78
2019-06-01T16:59:30.796Z,6.37
2019-06-01T17:02:01.162Z,8.03
2019-06-01T17:04:31.530Z,7.53
2019-06-01T17:07:05.066Z,7.70
2019-06-01T17:09:33.591Z,12.25
2019-06-01T17:12:05.131Z,5.55
2019-06-01T17:14:36.079Z,13.03
2019-06-01T17:17:07.487Z,4.95
2019-06-01T17:19:39.319Z,9.93
2019-06-01T17:22:09.531Z,5.92
2019-06-01T17:24:39.821Z,5.17
2019-06-01T17:27:10.134Z,9.73
2019-06-01T17:29:40.383Z,6.37
2019-06-01T17:32:23.004Z,5.10
2019-06-01T17:34:42.766Z,5.60
2019-06-01T17:37:13.178Z,8.08
2019-06-01T17:39:43.324Z,7.83
2019-06-01T17:42:15.180Z,9.63
2019-06-01T17:44:45.481Z,13.33
2019-06-01T17:47:15.772Z,13.32
2019-06-01T17:49:46.041Z,7.10
2019-06-01T17:52:16.334Z,5.03
2019-06-01T17:54:46.516Z,4.58
2019-06-01T17:57:16.748Z,6.03
2019-06-01T17:59:47.112Z,11.53
2019-06-01T18:02:17.444Z,6.20
2019-06-01T18:04:47.702Z,5.03
2019-06-01T18:07:17.919Z,9.95
2019-06-01T18:09:48.177Z,8.55
2019-06-01T18:12:18.404Z,8.60
2019-06-01T18:14:48.972Z,10.68
2019-06-01T18:17:20.409Z,8.38
2019-06-01T18:19:50.668Z,8.28
2019-06-01T18:22:21.012Z,8.48
2019-06-01T18:24:51.479Z,15.95
2019-06-01T18:27:21.808Z,13.50
2019-06-01T18:29:52.069Z,17.67
2019-06-01T18:32:22.449Z,12.70
2019-06-01T18:34:52.700Z,20.45
2019-06-01T18:37:24.366Z,15.58
2019-06-01T18:39:54.689Z,11.43
2019-06-01T18:42:27.443Z,8.08
2019-06-01T18:44:57.761Z,13.65
2019-06-01T18:47:32.315Z,17.25
2019-06-01T18:50:00.052Z,11.35
2019-06-01T18:52:30.455Z,10.50
2019-06-01T18:55:00.688Z,7.65
2019-06-01T18:57:31.562Z,10.48
2019-06-01T19:00:01.780Z,11.43
2019-06-01T19:02:32.120Z,9.88
2019-06-01T19:05:02.343Z,13.55
2019-06-01T19:07:32.558Z,17.17
2019-06-01T19:10:02.988Z,12.78
2019-06-01T19:12:33.328Z,11.78
2019-06-01T19:15:21.814Z,12.82
2019-06-01T19:17:38.355Z,11.68
2019-06-01T19:20:09.151Z,8.93
2019-06-01T19:22:39.387Z,10.58
2019-06-01T19:25:11.143Z,13.70
2019-06-01T19:27:41.726Z,13.93
2019-06-01T19:30:15.066Z,15.72
2019-06-01T19:32:45.445Z,17.40
2019-06-01T19:35:15.742Z,18.30
2019-06-01T19:37:47.024Z,17.55
2019-06-01T19:40:20.216Z,13.90
2019-06-01T19:42:50.535Z,14.38
2019-06-01T19:45:28.962Z,15.03
2019-06-01T19:47:52.716Z,13.10
2019-06-01T19:50:23.076Z,15.45
2019-06-01T19:52:53.332Z,15.75
2019-06-01T19:55:25.174Z,20.27
2019-06-01T19:57:56.454Z,14.58
2019-06-01T20:00:26.705Z,13.35
2019-06-01T20:02:56.910Z,24.35
2019-06-01T20:05:27.274Z,21.35
2019-06-01T20:07:57.618Z,22.10
2019-06-01T20:10:27.976Z,24.00
2019-06-01T20:12:58.307Z,22.37
2019-06-01T20:15:30.101Z,20.17
2019-06-01T20:18:00.379Z,19.12
2019-06-01T20:20:30.715Z,20.48
2019-06-01T20:23:01.141Z,17.40
2019-06-01T20:25:32.679Z,18.15
2019-06-01T20:28:02.990Z,17.32
2019-06-01T20:30:33.332Z,16.45
2019-06-01T20:33:03.606Z,16.77
2019-06-01T20:35:33.887Z,19.05
2019-06-01T20:38:04.346Z,17.70
2019-06-01T20:40:34.683Z,18.48
2019-06-01T20:43:04.982Z,15.70
2019-06-01T20:45:35.320Z,17.60
2019-06-01T20:48:05.772Z,16.25
2019-06-01T20:50:37.051Z,14.50
2019-06-01T20:53:08.774Z,15.38
2019-06-01T20:55:39.130Z,17.80
2019-06-01T20:58:11.038Z,18.87
2019-06-01T21:00:42.862Z,20.80
2019-06-01T21:03:13.719Z,18.25
2019-06-01T21:05:44.184Z,15.78
2019-06-01T21:08:15.942Z,17.55
2019-06-01T21:10:46.579Z,18.42
2019-06-01T21:13:17.865Z,17.25
2019-06-01T21:15:49.473Z,21.62
2019-06-01T21:18:20.948Z,20.10
2019-06-01T21:20:51.309Z,22.77
2019-06-01T21:23:22.643Z,22.22
2019-06-01T21:25:53.455Z,18.75
2019-06-01T21:28:25.457Z,21.12
2019-06-01T21:30:55.807Z,19.25
2019-06-01T21:33:28.556Z,23.50
2019-06-01T21:35:58.816Z,17.90
2019-06-01T21:38:29.017Z,20.52
2019-06-01T21:40:59.313Z,20.97
2019-06-01T21:43:35.141Z,23.22
2019-06-01T21:46:01.417Z,18.87
2019-06-01T21:48:31.700Z,17.85
2019-06-01T21:51:02.086Z,20.72
2019-06-01T21:53:32.543Z,23.22
2019-06-01T21:56:02.814Z,21.40
2019-06-01T21:58:33.266Z,19.50
2019-06-01T22:01:09.763Z,19.40
2019-06-01T22:03:42.813Z,23.47
2019-06-01T22:06:14.303Z,19.87
2019-06-01T22:08:52.344Z,17.85
2019-06-01T22:11:17.313Z,20.25
2019-06-01T22:13:47.683Z,23.47
2019-06-01T22:16:19.483Z,21.50
2019-06-01T22:18:49.813Z,19.95
2019-06-01T22:21:20.165Z,18.87
2019-06-01T22:23:50.561Z,21.97
2019-06-01T22:26:22.042Z,22.42
2019-06-01T22:28:52.333Z,20.35
2019-06-01T22:31:22.674Z,19.85
2019-06-01T22:33:52.983Z,18.07
2019-06-01T22:36:23.265Z,19.73
2019-06-01T22:38:53.523Z,23.65
2019-06-01T22:41:23.951Z,21.60
2019-06-01T22:43:54.248Z,19.98
2019-06-01T22:46:24.540Z,21.30
2019-06-01T22:48:54.817Z,23.12
2019-06-01T22:51:25.070Z,18.60
2019-06-01T22:53:55.227Z,20.20
2019-06-01T22:56:25.583Z,27.42
2019-06-01T22:58:55.875Z,22.05
2019-06-01T23:01:26.810Z,17.05
2019-06-01T23:03:57.242Z,20.57
2019-06-01T23:06:27.597Z,23.20
2019-06-01T23:08:57.896Z,25.88
2019-06-01T23:11:29.481Z,20.35
2019-06-01T23:14:00.048Z,23.45
2019-06-01T23:16:30.289Z,24.85
2019-06-01T23:19:00.587Z,21.40
2019-06-01T23:21:31.963Z,21.70
2019-06-01T23:24:02.315Z,22.93
2019-06-01T23:26:32.609Z,21.10
2019-06-01T23:29:02.883Z,21.15
2019-06-01T23:31:33.192Z,19.65
2019-06-01T23:34:04.659Z,20.70
2019-06-01T23:36:34.889Z,20.85
2019-06-01T23:39:07.157Z,20.95
2019-06-01T23:41:37.532Z,23.62
2019-06-01T23:44:11.831Z,21.10
2019-06-01T23:46:39.715Z,21.57
2019-06-01T23:49:09.983Z,20.72
2019-06-01T23:51:40.337Z,21.12
2019-06-01T23:54:10.646Z,17.67
2019-06-01T23:56:40.902Z,23.35
2019-06-01T23:59:11.144Z,18.98
